Favola — IBFH — position and weather

sailwx.info

Track history (hours):
 
Tides and Currents Weather Stations Pressure Air Temp Water Temp Dewpoint Dewpoint Depression Visibility Wind Speed Wind Dir Waves Ship Positions

Favola

Last reported at 2014-Sep-03 01:31 UTC. Time now 2014-Sep-03 02:35 UTC.
Position N 39°03' E 009°05'.

Length 180 m; draft 7.2 m.

Type: Ship (hazmat cat A). MMSI: 247069800.

Date/timePositionNaut miles runAvg speedWind from/ knotsBaromVisibWave heightAir tempDewpointWater temp
2014-Sep-03 01:31N 39°03' E 009°05'0 0.0
2014-Sep-03 00:31N 39°03' E 009°05'0 0.0
2014-Sep-02 23:31N 39°03' E 009°05'0 0.0
2014-Sep-02 22:31N 39°03' E 009°05'0 0.0
2014-Sep-02 21:31N 39°03' E 009°05'0 0.0
2014-Sep-02 20:31N 39°03' E 009°05'0 0.0
2014-Sep-02 19:31N 39°03' E 009°05'0 0.1
2014-Sep-02 18:31N 39°03' E 009°05'0 0.0
2014-Sep-02 17:31N 39°03' E 009°05'0 0.0
2014-Sep-02 16:31N 39°03' E 009°05'0 0.1
2014-Sep-02 15:31N 39°03' E 009°05'0 0.1
2014-Sep-02 14:31N 39°03' E 009°05'0 0.0
2014-Sep-02 13:31N 39°03' E 009°05'0 0.1
2014-Sep-02 12:34N 39°03' E 009°05'0 0.0
2014-Sep-02 11:33N 39°03' E 009°05'0 0.0
2014-Sep-02 10:33N 39°03' E 009°05'0 0.2
2014-Sep-02 09:33N 39°03' E 009°05'0 0.0
2014-Sep-02 08:33N 39°03' E 009°05'0 0.1
2014-Sep-02 07:33N 39°03' E 009°05'0 0.0
2014-Aug-31 22:24N 39°03' E 009°05'0 0.0
2014-Aug-31 21:32N 39°03' E 009°05'0 0.0
2014-Aug-31 20:32N 39°03' E 009°05'0 0.0
2014-Aug-31 19:32N 39°03' E 009°05'0 0.0
2014-Aug-31 18:32N 39°03' E 009°05'0 0.0
2014-Aug-31 17:32N 39°03' E 009°05'0 0.1
2014-Aug-31 16:32N 39°03' E 009°05'0 0.2
2014-Aug-31 15:32N 39°03' E 009°05'0 0.1
2014-Aug-31 14:32N 39°03' E 009°05'0 0.0
2014-Aug-31 13:29N 39°03' E 009°05'0 0.0
2014-Aug-31 12:32N 39°03' E 009°05'0 0.0
2014-Aug-31 11:32N 39°03' E 009°05'0 0.1
2014-Aug-31 10:32N 39°03' E 009°05'0 0.4
2014-Aug-31 09:33N 39°03' E 009°05'9 8.7
2014-Aug-31 08:33N 38°58' E 009°14'1010.4
2014-Aug-31 07:33N 38°51' E 009°25'1110.7
2014-Aug-31 06:33N 38°45' E 009°36'1110.5
2014-Aug-31 05:33N 38°38' E 009°46'1010.2
2014-Aug-31 04:33N 38°32' E 009°57'1010.0
2014-Aug-31 03:33N 38°27' E 010°08'1010.4
2014-Aug-31 02:33N 38°23' E 010°20'6610.2
2014-Aug-30 20:05N 37°56' E 011°37'35 9.7
2014-Aug-30 16:28N 37°36' E 012°13'78 9.7
2014-Aug-30 08:25N 37°01' E 013°41'910.5
2014-Aug-30 07:33N 36°57' E 013°51'1010.4
2014-Aug-30 06:33N 36°52' E 014°03'1010.4
2014-Aug-30 05:33N 36°47' E 014°14'1010.2
2014-Aug-30 04:33N 36°42' E 014°25'1010.1
2014-Aug-30 03:33N 36°38' E 014°37'2210.2
2014-Aug-30 01:27N 36°32' E 015°03'10 9.1
2014-Aug-30 00:22N 36°31' E 015°15'  
2014-Aug-25 22:31N 36°33' E 023°20'1312.1
2014-Aug-25 21:25N 36°44' E 023°28'1112.2
2014-Aug-25 20:33N 36°53' E 023°37'1312.7
2014-Aug-25 19:33N 37°02' E 023°47'1211.8
2014-Aug-25 18:33N 37°11' E 023°57'1211.9
2014-Aug-25 17:33N 37°19' E 024°08'1212.0
2014-Aug-25 16:33N 37°28' E 024°18'1211.8
2014-Aug-25 15:33N 37°36' E 024°29'1211.6
2014-Aug-25 14:30N 37°48' E 024°33'6111.9
2014-Aug-25 09:25N 38°42' E 025°08'1011.9
2014-Aug-25 08:33N 38°52' E 025°13'1612.1
2014-Aug-25 07:12N 39°06' E 025°23'812.1
2014-Aug-25 06:33N 39°13' E 025°27'2912.0
2014-Aug-25 04:09N 39°39' E 025°44'2011.9
2014-Aug-25 02:31N 39°57' E 025°53'  
Track history (hours):
 
Tides and Currents Weather Stations Pressure Air Temp Water Temp Dewpoint Dewpoint Depression Visibility Wind Speed Wind Dir Waves Ship Positions

Favola

Last reported at 2014-Sep-03 01:31 UTC. Time now 2014-Sep-03 02:35 UTC.
Position N 39°03' E 009°05'.

Length 180 m; draft 7.2 m.

Type: Ship (hazmat cat A). MMSI: 247069800.

Date/timePositionNaut miles runAvg speedWind from/ knotsBaromVisibWave heightAir tempDewpointWater temp
2014-Sep-03 01:31N 39°03' E 009°05'0 0.0
2014-Sep-03 00:31N 39°03' E 009°05'0 0.0
2014-Sep-02 23:31N 39°03' E 009°05'0 0.0
2014-Sep-02 22:31N 39°03' E 009°05'0 0.0
2014-Sep-02 21:31N 39°03' E 009°05'0 0.0
2014-Sep-02 20:31N 39°03' E 009°05'0 0.0
2014-Sep-02 19:31N 39°03' E 009°05'0 0.1
2014-Sep-02 18:31N 39°03' E 009°05'0 0.0
2014-Sep-02 17:31N 39°03' E 009°05'0 0.0
2014-Sep-02 16:31N 39°03' E 009°05'0 0.1
2014-Sep-02 15:31N 39°03' E 009°05'0 0.1
2014-Sep-02 14:31N 39°03' E 009°05'0 0.0
2014-Sep-02 13:31N 39°03' E 009°05'0 0.1
2014-Sep-02 12:34N 39°03' E 009°05'0 0.0
2014-Sep-02 11:33N 39°03' E 009°05'0 0.0
2014-Sep-02 10:33N 39°03' E 009°05'0 0.2
2014-Sep-02 09:33N 39°03' E 009°05'0 0.0
2014-Sep-02 08:33N 39°03' E 009°05'0 0.1
2014-Sep-02 07:33N 39°03' E 009°05'0 0.0
2014-Aug-31 22:24N 39°03' E 009°05'0 0.0
2014-Aug-31 21:32N 39°03' E 009°05'0 0.0
2014-Aug-31 20:32N 39°03' E 009°05'0 0.0
2014-Aug-31 19:32N 39°03' E 009°05'0 0.0
2014-Aug-31 18:32N 39°03' E 009°05'0 0.0
2014-Aug-31 17:32N 39°03' E 009°05'0 0.1
2014-Aug-31 16:32N 39°03' E 009°05'0 0.2
2014-Aug-31 15:32N 39°03' E 009°05'0 0.1
2014-Aug-31 14:32N 39°03' E 009°05'0 0.0
2014-Aug-31 13:29N 39°03' E 009°05'0 0.0
2014-Aug-31 12:32N 39°03' E 009°05'0 0.0
2014-Aug-31 11:32N 39°03' E 009°05'0 0.1
2014-Aug-31 10:32N 39°03' E 009°05'0 0.4
2014-Aug-31 09:33N 39°03' E 009°05'9 8.7
2014-Aug-31 08:33N 38°58' E 009°14'1010.4
2014-Aug-31 07:33N 38°51' E 009°25'1110.7
2014-Aug-31 06:33N 38°45' E 009°36'1110.5
2014-Aug-31 05:33N 38°38' E 009°46'1010.2
2014-Aug-31 04:33N 38°32' E 009°57'1010.0
2014-Aug-31 03:33N 38°27' E 010°08'1010.4
2014-Aug-31 02:33N 38°23' E 010°20'6610.2
2014-Aug-30 20:05N 37°56' E 011°37'35 9.7
2014-Aug-30 16:28N 37°36' E 012°13'78 9.7
2014-Aug-30 08:25N 37°01' E 013°41'910.5
2014-Aug-30 07:33N 36°57' E 013°51'1010.4
2014-Aug-30 06:33N 36°52' E 014°03'1010.4
2014-Aug-30 05:33N 36°47' E 014°14'1010.2
2014-Aug-30 04:33N 36°42' E 014°25'1010.1
2014-Aug-30 03:33N 36°38' E 014°37'2210.2
2014-Aug-30 01:27N 36°32' E 015°03'10 9.1
2014-Aug-30 00:22N 36°31' E 015°15'  
2014-Aug-25 22:31N 36°33' E 023°20'1312.1
2014-Aug-25 21:25N 36°44' E 023°28'1112.2
2014-Aug-25 20:33N 36°53' E 023°37'1312.7
2014-Aug-25 19:33N 37°02' E 023°47'1211.8
2014-Aug-25 18:33N 37°11' E 023°57'1211.9
2014-Aug-25 17:33N 37°19' E 024°08'1212.0
2014-Aug-25 16:33N 37°28' E 024°18'1211.8
2014-Aug-25 15:33N 37°36' E 024°29'1211.6
2014-Aug-25 14:30N 37°48' E 024°33'6111.9
2014-Aug-25 09:25N 38°42' E 025°08'1011.9
2014-Aug-25 08:33N 38°52' E 025°13'1612.1
2014-Aug-25 07:12N 39°06' E 025°23'812.1
2014-Aug-25 06:33N 39°13' E 025°27'2912.0
2014-Aug-25 04:09N 39°39' E 025°44'2011.9
2014-Aug-25 02:31N 39°57' E 025°53'  

Dump ship's entire track history